Vers la page d'accueil de NAV CANADA Ouverture d'une nouvelle session Chercher sur le site AWWS Clause de non-reponsabilité To the equivalent English page Trucs et astuces FAQ Quoi de neuf sur le site Vers la section Prévisions et observations / NOTAM Vers le site web pour <<Déposer un plan de vol>> Publications et liens importants Mise à jour du profil d'usager Numéros de téléphone des FIC Mes données météo personnelles Données météo de route Données météo régionales Données météo locales Vers la section Prévisions et observations / NOTAM
Requête générée le 2018/10/19 à 15:28:14 UTC. L'information météorologique disponible à ce moment est affichée.

METAR/TAF

Si vous notez des différences entre le METAR/TAF codé et le METAR/TAF en langage clair, veuillez utiliser la version codée. Les bulletins LWIS ne sont pas décodés en langage clair.

SHERBROOKE/QC    (voir Cam météo)

METAR CYSC 191500Z AUTO 21011KT 9SM OVC033 08/01 A2995 RMK PRESFR SLP154=
METAR
LIEU
CYSC - SHERBROOKE/QC
DATE - HEURE
19 OCTOBRE 2018 - 1500 UTC
VENT
210 VRAIS @ 11  NOEUDS
VISIBILITE
9 MILLES TERR.
PORTEE VISUELLE DE PISTE
METEO
NEBULOSITE
CIEL COUVERT 3300  PI
TEMP / PT DE ROSEE
8 C / 1 C
ALTIMETRE
29.95 PO HG
TEMPS RECENT
CISAILLEMENT

METAR CYSC 191400Z AUTO 22009G17KT 9SM CLR 07/00 A2999 RMK SLP166=
METAR
LIEU
CYSC - SHERBROOKE/QC
DATE - HEURE
19 OCTOBRE 2018 - 1400 UTC
VENT
220 VRAIS @ 9  NOEUDS
RAFALES
17 NOEUDS
VISIBILITE
9 MILLES TERR.
PORTEE VISUELLE DE PISTE
METEO
NEBULOSITE
CIEL DEGAGE
TEMP / PT DE ROSEE
7 C / 0 C
ALTIMETRE
29.99 PO HG
TEMPS RECENT
CISAILLEMENT

METAR CYSC 191300Z AUTO 21005KT 180V240 9SM OVC035 04/M00 A3001 RMK SLP173=
METAR
LIEU
CYSC - SHERBROOKE/QC
DATE - HEURE
19 OCTOBRE 2018 - 1300 UTC
VENT
210 VRAIS @ 5  NOEUDS
VARIATION
180 <-> 240  DEG
VISIBILITE
9 MILLES TERR.
PORTEE VISUELLE DE PISTE
METEO
NEBULOSITE
CIEL COUVERT 3500  PI
TEMP / PT DE ROSEE
4 C / 0 C
ALTIMETRE
30.01 PO HG
TEMPS RECENT
CISAILLEMENT

TAF CYSC 191039Z 1911/1923 VRB03KT P6SM OVC040 BECMG 1914/1916 23012G22KT FM192000 23012G22KT P6SM FEW040 RMK FCST BASED ON AUTO OBS. NXT FCST BY 191800Z=
TAF
LIEU

CYSC - SHERBROOKE/QC
VALIDITE [UTC]
19 OCT - 1039 à
19 OCT - 2300
 
PERIODES
[UTC]
VENT
[DEGRES VRAIS]
VISIBILITE
[MILLES TERR.]
METEO
NEBULOSITE
[PIEDS AGL]
 
19 OCT - 1100 à
19 OCT - 2000
VARIABLE @ 3 NOEUDS
6+
---
4000 CIEL COUVERT
CHANGEMENTS GRADUELS
19 OCT - 1400 à
19 OCT - 1600
230 @ 12 NOEUDS
RAFALES 22 NOEUDS
 
 
 
 
19 OCT - 2000 à
19 OCT - 2300
230 @ 12 NOEUDS
RAFALES 22 NOEUDS
6+
---
4000 QUELQUES
REMARQUES
LA PREVISION EST FONDEE SUR DES OBSERVATIONS AUTOMATISEES - LA PREVISION SUIVANTE SERA EMISE POUR 1800 UTC LE 19


Votre heure Heure UTC
Données météorologiques fournies par Environnement Canada et NAV CANADA